sensor_id;sensor_type;location;lat;lon;timestamp;P1;durP1;ratioP1;P2;durP2;ratioP2
81336;SDS011;70799;48.000;10.584;2024-02-26T00:00:53;3.03;;;1.13;;
81336;SDS011;70799;48.000;10.584;2024-02-26T00:03:29;3.13;;;1.20;;
81336;SDS011;70799;48.000;10.584;2024-02-26T00:06:07;4.25;;;1.75;;
81336;SDS011;70799;48.000;10.584;2024-02-26T00:08:44;2.67;;;1.15;;
81336;SDS011;70799;48.000;10.584;2024-02-26T00:13:56;3.70;;;1.30;;
81336;SDS011;70799;48.000;10.584;2024-02-26T00:16:32;3.05;;;1.00;;
81336;SDS011;70799;48.000;10.584;2024-02-26T00:19:08;3.10;;;1.05;;
81336;SDS011;70799;48.000;10.584;2024-02-26T00:24:20;2.75;;;1.00;;
81336;SDS011;70799;48.000;10.584;2024-02-26T00:26:56;4.50;;;1.00;;
81336;SDS011;70799;48.000;10.584;2024-02-26T00:29:34;3.65;;;1.17;;
81336;SDS011;70799;48.000;10.584;2024-02-26T00:32:10;3.15;;;1.50;;
81336;SDS011;70799;48.000;10.584;2024-02-26T00:34:46;2.65;;;1.42;;
81336;SDS011;70799;48.000;10.584;2024-02-26T00:37:23;2.95;;;1.17;;
81336;SDS011;70799;48.000;10.584;2024-02-26T00:39:59;2.50;;;1.38;;
81336;SDS011;70799;48.000;10.584;2024-02-26T00:42:35;2.80;;;1.40;;
81336;SDS011;70799;48.000;10.584;2024-02-26T00:45:11;3.80;;;1.20;;
81336;SDS011;70799;48.000;10.584;2024-02-26T00:47:49;3.15;;;1.50;;
81336;SDS011;70799;48.000;10.584;2024-02-26T00:50:24;3.13;;;1.38;;
81336;SDS011;70799;48.000;10.584;2024-02-26T00:53:02;3.67;;;1.50;;
81336;SDS011;70799;48.000;10.584;2024-02-26T00:55:38;3.58;;;1.58;;
81336;SDS011;70799;48.000;10.584;2024-02-26T00:58:14;2.95;;;1.05;;
81336;SDS011;70799;48.000;10.584;2024-02-26T01:04:32;1.70;;;1.10;;
81336;SDS011;70799;48.000;10.584;2024-02-26T01:09:45;2.55;;;1.38;;
81336;SDS011;70799;48.000;10.584;2024-02-26T01:12:20;4.10;;;1.30;;
81336;SDS011;70799;48.000;10.584;2024-02-26T01:14:56;2.13;;;1.30;;
81336;SDS011;70799;48.000;10.584;2024-02-26T01:17:34;3.28;;;1.20;;
81336;SDS011;70799;48.000;10.584;2024-02-26T01:20:11;3.58;;;1.33;;
81336;SDS011;70799;48.000;10.584;2024-02-26T01:22:47;3.42;;;1.30;;
81336;SDS011;70799;48.000;10.584;2024-02-26T01:25:23;2.50;;;0.93;;
81336;SDS011;70799;48.000;10.584;2024-02-26T01:27:59;3.60;;;1.63;;
81336;SDS011;70799;48.000;10.584;2024-02-26T01:30:37;3.72;;;1.27;;
81336;SDS011;70799;48.000;10.584;2024-02-26T01:33:13;4.30;;;1.27;;
81336;SDS011;70799;48.000;10.584;2024-02-26T01:35:49;4.70;;;1.27;;
81336;SDS011;70799;48.000;10.584;2024-02-26T01:38:25;2.53;;;1.10;;
81336;SDS011;70799;48.000;10.584;2024-02-26T01:41:02;3.85;;;1.95;;
81336;SDS011;70799;48.000;10.584;2024-02-26T01:43:38;4.55;;;1.38;;
81336;SDS011;70799;48.000;10.584;2024-02-26T01:46:14;3.15;;;1.10;;
81336;SDS011;70799;48.000;10.584;2024-02-26T01:48:50;4.05;;;1.58;;
81336;SDS011;70799;48.000;10.584;2024-02-26T01:51:26;3.78;;;1.50;;
81336;SDS011;70799;48.000;10.584;2024-02-26T01:54:03;3.08;;;1.50;;
81336;SDS011;70799;48.000;10.584;2024-02-26T01:56:39;3.85;;;1.40;;
81336;SDS011;70799;48.000;10.584;2024-02-26T01:59:16;2.45;;;1.10;;
81336;SDS011;70799;48.000;10.584;2024-02-26T02:01:54;3.22;;;1.00;;
81336;SDS011;70799;48.000;10.584;2024-02-26T02:04:35;3.25;;;1.35;;
81336;SDS011;70799;48.000;10.584;2024-02-26T02:07:11;2.65;;;1.10;;
81336;SDS011;70799;48.000;10.584;2024-02-26T02:09:48;4.22;;;2.05;;
81336;SDS011;70799;48.000;10.584;2024-02-26T02:12:24;2.75;;;1.05;;
81336;SDS011;70799;48.000;10.584;2024-02-26T02:15:00;3.35;;;1.38;;
81336;SDS011;70799;48.000;10.584;2024-02-26T02:17:36;4.97;;;1.30;;
81336;SDS011;70799;48.000;10.584;2024-02-26T02:20:16;3.15;;;1.30;;
81336;SDS011;70799;48.000;10.584;2024-02-26T02:22:52;2.38;;;1.38;;
81336;SDS011;70799;48.000;10.584;2024-02-26T02:25:28;3.10;;;1.10;;
81336;SDS011;70799;48.000;10.584;2024-02-26T02:28:04;3.10;;;1.30;;
81336;SDS011;70799;48.000;10.584;2024-02-26T02:30:40;2.67;;;1.05;;
81336;SDS011;70799;48.000;10.584;2024-02-26T02:33:16;3.10;;;1.23;;
81336;SDS011;70799;48.000;10.584;2024-02-26T02:38:30;2.42;;;1.33;;
81336;SDS011;70799;48.000;10.584;2024-02-26T02:41:06;3.65;;;1.80;;
81336;SDS011;70799;48.000;10.584;2024-02-26T02:43:41;2.90;;;1.40;;
81336;SDS011;70799;48.000;10.584;2024-02-26T02:46:17;3.30;;;1.25;;
81336;SDS011;70799;48.000;10.584;2024-02-26T02:48:53;2.85;;;1.20;;
81336;SDS011;70799;48.000;10.584;2024-02-26T02:51:29;2.28;;;1.25;;
81336;SDS011;70799;48.000;10.584;2024-02-26T02:54:05;2.40;;;1.20;;
81336;SDS011;70799;48.000;10.584;2024-02-26T02:56:41;3.47;;;1.10;;
81336;SDS011;70799;48.000;10.584;2024-02-26T02:59:17;2.17;;;1.05;;
81336;SDS011;70799;48.000;10.584;2024-02-26T03:01:53;3.00;;;1.30;;
81336;SDS011;70799;48.000;10.584;2024-02-26T03:04:29;2.90;;;1.27;;
81336;SDS011;70799;48.000;10.584;2024-02-26T03:07:05;3.63;;;1.10;;
81336;SDS011;70799;48.000;10.584;2024-02-26T03:09:41;2.92;;;1.20;;
81336;SDS011;70799;48.000;10.584;2024-02-26T03:12:17;2.72;;;1.40;;
81336;SDS011;70799;48.000;10.584;2024-02-26T03:14:53;2.90;;;1.40;;
81336;SDS011;70799;48.000;10.584;2024-02-26T03:17:29;2.47;;;0.82;;
81336;SDS011;70799;48.000;10.584;2024-02-26T03:20:06;2.50;;;1.13;;
81336;SDS011;70799;48.000;10.584;2024-02-26T03:22:43;4.72;;;1.50;;
81336;SDS011;70799;48.000;10.584;2024-02-26T03:25:19;3.83;;;1.30;;
81336;SDS011;70799;48.000;10.584;2024-02-26T03:27:56;3.45;;;1.65;;
81336;SDS011;70799;48.000;10.584;2024-02-26T03:30:35;3.40;;;1.35;;
81336;SDS011;70799;48.000;10.584;2024-02-26T03:33:11;3.08;;;1.45;;
81336;SDS011;70799;48.000;10.584;2024-02-26T03:35:47;3.08;;;1.27;;
81336;SDS011;70799;48.000;10.584;2024-02-26T03:38:23;2.88;;;1.55;;
81336;SDS011;70799;48.000;10.584;2024-02-26T03:40:59;3.08;;;1.42;;
81336;SDS011;70799;48.000;10.584;2024-02-26T03:43:37;3.53;;;1.42;;
81336;SDS011;70799;48.000;10.584;2024-02-26T03:46:13;2.40;;;1.23;;
81336;SDS011;70799;48.000;10.584;2024-02-26T03:48:48;3.78;;;1.10;;
81336;SDS011;70799;48.000;10.584;2024-02-26T03:51:24;3.35;;;1.45;;
81336;SDS011;70799;48.000;10.584;2024-02-26T03:54:03;2.85;;;0.93;;
81336;SDS011;70799;48.000;10.584;2024-02-26T03:56:39;2.33;;;1.02;;
81336;SDS011;70799;48.000;10.584;2024-02-26T03:59:15;2.72;;;0.93;;
81336;SDS011;70799;48.000;10.584;2024-02-26T04:01:52;2.38;;;0.88;;
81336;SDS011;70799;48.000;10.584;2024-02-26T04:04:28;1.75;;;0.80;;
81336;SDS011;70799;48.000;10.584;2024-02-26T04:07:03;2.70;;;1.20;;
81336;SDS011;70799;48.000;10.584;2024-02-26T04:12:16;2.55;;;0.90;;
81336;SDS011;70799;48.000;10.584;2024-02-26T04:14:52;2.95;;;1.15;;
81336;SDS011;70799;48.000;10.584;2024-02-26T04:17:28;1.75;;;0.70;;
81336;SDS011;70799;48.000;10.584;2024-02-26T04:20:04;2.30;;;0.80;;
81336;SDS011;70799;48.000;10.584;2024-02-26T04:22:41;2.47;;;1.05;;
81336;SDS011;70799;48.000;10.584;2024-02-26T04:25:17;2.20;;;1.00;;
81336;SDS011;70799;48.000;10.584;2024-02-26T04:27:53;3.05;;;0.82;;
81336;SDS011;70799;48.000;10.584;2024-02-26T04:30:29;5.70;;;1.15;;
81336;SDS011;70799;48.000;10.584;2024-02-26T04:33:05;1.88;;;1.13;;
81336;SDS011;70799;48.000;10.584;2024-02-26T04:35:41;1.67;;;0.50;;
81336;SDS011;70799;48.000;10.584;2024-02-26T04:38:17;2.03;;;0.85;;
81336;SDS011;70799;48.000;10.584;2024-02-26T04:40:54;1.83;;;0.90;;
81336;SDS011;70799;48.000;10.584;2024-02-26T04:43:30;1.85;;;0.90;;
81336;SDS011;70799;48.000;10.584;2024-02-26T04:46:06;1.67;;;0.60;;
81336;SDS011;70799;48.000;10.584;2024-02-26T04:48:42;1.48;;;0.60;;
81336;SDS011;70799;48.000;10.584;2024-02-26T04:51:19;2.13;;;0.70;;
81336;SDS011;70799;48.000;10.584;2024-02-26T04:53:55;3.90;;;0.90;;
81336;SDS011;70799;48.000;10.584;2024-02-26T04:56:32;2.05;;;0.70;;
81336;SDS011;70799;48.000;10.584;2024-02-26T04:59:08;1.15;;;0.38;;
81336;SDS011;70799;48.000;10.584;2024-02-26T05:01:44;0.80;;;0.40;;
81336;SDS011;70799;48.000;10.584;2024-02-26T05:04:20;0.82;;;0.40;;
81336;SDS011;70799;48.000;10.584;2024-02-26T05:06:56;0.68;;;0.32;;
81336;SDS011;70799;48.000;10.584;2024-02-26T05:09:34;1.80;;;0.22;;
81336;SDS011;70799;48.000;10.584;2024-02-26T05:12:10;1.02;;;0.20;;
81336;SDS011;70799;48.000;10.584;2024-02-26T05:14:46;0.63;;;0.30;;
81336;SDS011;70799;48.000;10.584;2024-02-26T05:17:22;1.45;;;0.47;;
81336;SDS011;70799;48.000;10.584;2024-02-26T05:19:58;1.42;;;0.30;;
81336;SDS011;70799;48.000;10.584;2024-02-26T05:22:35;1.20;;;0.30;;
81336;SDS011;70799;48.000;10.584;2024-02-26T05:25:14;0.95;;;0.60;;
81336;SDS011;70799;48.000;10.584;2024-02-26T05:27:50;1.10;;;0.32;;
81336;SDS011;70799;48.000;10.584;2024-02-26T05:30:26;0.70;;;0.20;;
81336;SDS011;70799;48.000;10.584;2024-02-26T05:33:03;0.70;;;0.40;;
81336;SDS011;70799;48.000;10.584;2024-02-26T05:35:39;0.63;;;0.40;;
81336;SDS011;70799;48.000;10.584;2024-02-26T05:38:16;1.92;;;0.52;;
81336;SDS011;70799;48.000;10.584;2024-02-26T05:40:52;1.67;;;0.80;;
81336;SDS011;70799;48.000;10.584;2024-02-26T05:43:28;1.42;;;0.63;;
81336;SDS011;70799;48.000;10.584;2024-02-26T05:46:04;0.50;;;0.32;;
81336;SDS011;70799;48.000;10.584;2024-02-26T05:48:40;1.75;;;0.50;;
81336;SDS011;70799;48.000;10.584;2024-02-26T05:51:16;1.23;;;0.30;;
81336;SDS011;70799;48.000;10.584;2024-02-26T05:56:28;1.42;;;0.47;;
81336;SDS011;70799;48.000;10.584;2024-02-26T05:59:04;1.73;;;0.50;;
81336;SDS011;70799;48.000;10.584;2024-02-26T06:01:40;0.57;;;0.38;;
81336;SDS011;70799;48.000;10.584;2024-02-26T06:04:16;0.77;;;0.50;;
81336;SDS011;70799;48.000;10.584;2024-02-26T06:12:04;1.52;;;0.38;;
81336;SDS011;70799;48.000;10.584;2024-02-26T06:17:16;0.45;;;0.30;;
81336;SDS011;70799;48.000;10.584;2024-02-26T06:19:52;1.02;;;0.47;;
81336;SDS011;70799;48.000;10.584;2024-02-26T06:22:29;0.82;;;0.40;;
81336;SDS011;70799;48.000;10.584;2024-02-26T06:25:05;1.38;;;0.57;;
81336;SDS011;70799;48.000;10.584;2024-02-26T06:27:42;1.60;;;0.32;;
81336;SDS011;70799;48.000;10.584;2024-02-26T06:30:17;1.90;;;0.60;;
81336;SDS011;70799;48.000;10.584;2024-02-26T06:32:53;1.70;;;0.40;;
81336;SDS011;70799;48.000;10.584;2024-02-26T06:35:29;1.35;;;0.60;;
81336;SDS011;70799;48.000;10.584;2024-02-26T06:38:05;1.30;;;0.40;;
81336;SDS011;70799;48.000;10.584;2024-02-26T06:40:44;1.80;;;0.68;;
81336;SDS011;70799;48.000;10.584;2024-02-26T06:43:20;1.13;;;0.50;;
81336;SDS011;70799;48.000;10.584;2024-02-26T06:45:56;1.95;;;0.70;;
81336;SDS011;70799;48.000;10.584;2024-02-26T06:48:32;2.22;;;0.47;;
81336;SDS011;70799;48.000;10.584;2024-02-26T06:51:09;2.45;;;0.40;;
81336;SDS011;70799;48.000;10.584;2024-02-26T06:53:45;1.83;;;0.70;;
81336;SDS011;70799;48.000;10.584;2024-02-26T06:56:21;1.13;;;0.40;;
81336;SDS011;70799;48.000;10.584;2024-02-26T06:58:57;1.83;;;0.50;;
81336;SDS011;70799;48.000;10.584;2024-02-26T07:01:33;0.65;;;0.50;;
81336;SDS011;70799;48.000;10.584;2024-02-26T07:04:09;1.65;;;0.60;;
81336;SDS011;70799;48.000;10.584;2024-02-26T07:06:45;2.42;;;0.82;;
81336;SDS011;70799;48.000;10.584;2024-02-26T07:09:22;8.43;;;2.72;;
81336;SDS011;70799;48.000;10.584;2024-02-26T07:11:57;8.38;;;2.35;;
81336;SDS011;70799;48.000;10.584;2024-02-26T07:14:33;6.50;;;1.73;;
81336;SDS011;70799;48.000;10.584;2024-02-26T07:17:09;3.38;;;1.23;;
81336;SDS011;70799;48.000;10.584;2024-02-26T07:19:45;3.33;;;1.10;;
81336;SDS011;70799;48.000;10.584;2024-02-26T07:22:21;3.78;;;1.30;;
81336;SDS011;70799;48.000;10.584;2024-02-26T07:24:57;3.83;;;1.27;;
81336;SDS011;70799;48.000;10.584;2024-02-26T07:27:33;3.22;;;1.25;;
81336;SDS011;70799;48.000;10.584;2024-02-26T07:30:09;3.35;;;0.88;;
81336;SDS011;70799;48.000;10.584;2024-02-26T07:32:48;2.38;;;1.10;;
81336;SDS011;70799;48.000;10.584;2024-02-26T07:35:24;2.85;;;1.10;;
81336;SDS011;70799;48.000;10.584;2024-02-26T07:38:01;2.00;;;1.08;;
81336;SDS011;70799;48.000;10.584;2024-02-26T07:40:42;1.73;;;0.80;;
81336;SDS011;70799;48.000;10.584;2024-02-26T07:43:30;2.00;;;1.08;;
81336;SDS011;70799;48.000;10.584;2024-02-26T07:46:06;1.80;;;0.95;;
81336;SDS011;70799;48.000;10.584;2024-02-26T07:48:42;2.63;;;0.77;;
81336;SDS011;70799;48.000;10.584;2024-02-26T07:51:18;2.05;;;0.88;;
81336;SDS011;70799;48.000;10.584;2024-02-26T07:53:54;4.03;;;2.45;;
81336;SDS011;70799;48.000;10.584;2024-02-26T07:56:30;9.98;;;4.00;;
81336;SDS011;70799;48.000;10.584;2024-02-26T07:59:06;2.55;;;1.13;;
81336;SDS011;70799;48.000;10.584;2024-02-26T08:04:21;1.85;;;1.08;;
81336;SDS011;70799;48.000;10.584;2024-02-26T08:06:59;2.92;;;1.02;;
81336;SDS011;70799;48.000;10.584;2024-02-26T08:09:35;2.47;;;1.05;;
81336;SDS011;70799;48.000;10.584;2024-02-26T08:12:11;2.83;;;1.15;;
81336;SDS011;70799;48.000;10.584;2024-02-26T08:17:23;2.65;;;1.30;;
81336;SDS011;70799;48.000;10.584;2024-02-26T08:20:01;2.78;;;1.30;;
81336;SDS011;70799;48.000;10.584;2024-02-26T08:22:38;3.40;;;1.35;;
81336;SDS011;70799;48.000;10.584;2024-02-26T08:25:14;4.15;;;1.60;;
81336;SDS011;70799;48.000;10.584;2024-02-26T08:27:50;3.78;;;1.73;;
81336;SDS011;70799;48.000;10.584;2024-02-26T08:30:26;3.97;;;1.65;;
81336;SDS011;70799;48.000;10.584;2024-02-26T08:33:02;2.90;;;1.52;;
81336;SDS011;70799;48.000;10.584;2024-02-26T08:35:38;3.67;;;1.40;;
81336;SDS011;70799;48.000;10.584;2024-02-26T08:40:50;2.22;;;1.10;;
81336;SDS011;70799;48.000;10.584;2024-02-26T08:43:26;2.65;;;1.20;;
81336;SDS011;70799;48.000;10.584;2024-02-26T08:48:38;2.67;;;1.33;;
81336;SDS011;70799;48.000;10.584;2024-02-26T08:51:15;3.08;;;1.20;;
81336;SDS011;70799;48.000;10.584;2024-02-26T08:53:51;3.15;;;1.17;;
81336;SDS011;70799;48.000;10.584;2024-02-26T08:56:27;4.22;;;1.65;;
81336;SDS011;70799;48.000;10.584;2024-02-26T09:01:38;3.63;;;1.50;;
81336;SDS011;70799;48.000;10.584;2024-02-26T09:06:50;3.47;;;1.20;;
81336;SDS011;70799;48.000;10.584;2024-02-26T09:12:02;1.85;;;0.80;;
81336;SDS011;70799;48.000;10.584;2024-02-26T09:14:38;3.53;;;0.95;;
81336;SDS011;70799;48.000;10.584;2024-02-26T09:19:50;1.85;;;0.70;;
81336;SDS011;70799;48.000;10.584;2024-02-26T09:22:26;3.05;;;0.90;;
81336;SDS011;70799;48.000;10.584;2024-02-26T09:27:38;3.45;;;1.48;;
81336;SDS011;70799;48.000;10.584;2024-02-26T09:30:15;3.67;;;1.10;;
81336;SDS011;70799;48.000;10.584;2024-02-26T09:32:51;2.47;;;0.90;;
81336;SDS011;70799;48.000;10.584;2024-02-26T09:35:27;1.70;;;0.80;;
81336;SDS011;70799;48.000;10.584;2024-02-26T09:40:40;1.95;;;1.25;;
81336;SDS011;70799;48.000;10.584;2024-02-26T09:45:54;3.67;;;1.13;;
81336;SDS011;70799;48.000;10.584;2024-02-26T09:48:34;5.18;;;1.30;;
81336;SDS011;70799;48.000;10.584;2024-02-26T09:51:10;6.43;;;2.05;;
81336;SDS011;70799;48.000;10.584;2024-02-26T09:53:46;3.70;;;1.27;;
81336;SDS011;70799;48.000;10.584;2024-02-26T09:56:23;3.22;;;1.30;;
81336;SDS011;70799;48.000;10.584;2024-02-26T09:59:01;3.92;;;1.77;;
81336;SDS011;70799;48.000;10.584;2024-02-26T10:01:41;4.75;;;1.73;;
81336;SDS011;70799;48.000;10.584;2024-02-26T10:04:17;2.60;;;1.52;;
81336;SDS011;70799;48.000;10.584;2024-02-26T10:06:54;3.45;;;1.40;;
81336;SDS011;70799;48.000;10.584;2024-02-26T10:09:32;7.63;;;1.50;;
81336;SDS011;70799;48.000;10.584;2024-02-26T10:12:09;3.33;;;1.33;;
81336;SDS011;70799;48.000;10.584;2024-02-26T10:14:47;5.40;;;2.63;;
81336;SDS011;70799;48.000;10.584;2024-02-26T10:17:23;3.72;;;1.92;;
81336;SDS011;70799;48.000;10.584;2024-02-26T10:22:51;3.45;;;1.70;;
81336;SDS011;70799;48.000;10.584;2024-02-26T10:25:27;3.47;;;1.60;;
81336;SDS011;70799;48.000;10.584;2024-02-26T10:28:03;4.53;;;2.10;;
81336;SDS011;70799;48.000;10.584;2024-02-26T10:30:39;4.63;;;2.33;;
81336;SDS011;70799;48.000;10.584;2024-02-26T10:33:15;3.50;;;1.65;;
81336;SDS011;70799;48.000;10.584;2024-02-26T10:35:51;4.03;;;1.60;;
81336;SDS011;70799;48.000;10.584;2024-02-26T10:38:29;3.75;;;1.70;;
81336;SDS011;70799;48.000;10.584;2024-02-26T10:41:05;3.58;;;1.42;;
81336;SDS011;70799;48.000;10.584;2024-02-26T10:43:42;4.35;;;2.50;;
81336;SDS011;70799;48.000;10.584;2024-02-26T10:46:19;5.40;;;2.08;;
81336;SDS011;70799;48.000;10.584;2024-02-26T10:48:55;7.80;;;3.40;;
81336;SDS011;70799;48.000;10.584;2024-02-26T10:51:33;6.93;;;3.35;;
81336;SDS011;70799;48.000;10.584;2024-02-26T10:54:12;6.82;;;3.83;;
81336;SDS011;70799;48.000;10.584;2024-02-26T10:56:51;7.55;;;3.88;;
81336;SDS011;70799;48.000;10.584;2024-02-26T10:59:27;5.47;;;3.10;;
81336;SDS011;70799;48.000;10.584;2024-02-26T11:02:03;6.38;;;2.60;;
81336;SDS011;70799;48.000;10.584;2024-02-26T11:04:39;7.57;;;2.40;;
81336;SDS011;70799;48.000;10.584;2024-02-26T11:07:16;4.90;;;2.17;;
81336;SDS011;70799;48.000;10.584;2024-02-26T11:09:55;4.97;;;1.92;;
81336;SDS011;70799;48.000;10.584;2024-02-26T11:12:33;3.92;;;2.00;;
81336;SDS011;70799;48.000;10.584;2024-02-26T11:15:10;3.60;;;1.63;;
81336;SDS011;70799;48.000;10.584;2024-02-26T11:17:47;6.75;;;2.53;;
81336;SDS011;70799;48.000;10.584;2024-02-26T11:20:23;5.03;;;1.80;;
81336;SDS011;70799;48.000;10.584;2024-02-26T11:22:59;4.82;;;1.70;;
81336;SDS011;70799;48.000;10.584;2024-02-26T11:25:36;5.25;;;2.42;;
81336;SDS011;70799;48.000;10.584;2024-02-26T11:28:14;4.57;;;2.10;;
81336;SDS011;70799;48.000;10.584;2024-02-26T11:30:51;3.90;;;1.80;;
81336;SDS011;70799;48.000;10.584;2024-02-26T11:33:28;3.58;;;1.90;;
81336;SDS011;70799;48.000;10.584;2024-02-26T11:36:08;5.72;;;2.00;;
81336;SDS011;70799;48.000;10.584;2024-02-26T11:38:46;6.22;;;3.03;;
81336;SDS011;70799;48.000;10.584;2024-02-26T11:41:24;5.45;;;2.13;;
81336;SDS011;70799;48.000;10.584;2024-02-26T11:44:02;10.55;;;2.35;;
81336;SDS011;70799;48.000;10.584;2024-02-26T11:46:40;14.88;;;3.17;;
81336;SDS011;70799;48.000;10.584;2024-02-26T11:52:07;11.05;;;2.45;;
81336;SDS011;70799;48.000;10.584;2024-02-26T11:54:44;5.20;;;1.58;;
81336;SDS011;70799;48.000;10.584;2024-02-26T11:57:27;2.85;;;1.33;;
81336;SDS011;70799;48.000;10.584;2024-02-26T12:00:13;4.03;;;1.52;;
81336;SDS011;70799;48.000;10.584;2024-02-26T12:02:55;3.78;;;2.00;;
81336;SDS011;70799;48.000;10.584;2024-02-26T12:05:35;2.22;;;1.23;;
81336;SDS011;70799;48.000;10.584;2024-02-26T12:08:11;2.30;;;1.38;;
81336;SDS011;70799;48.000;10.584;2024-02-26T12:10:49;2.65;;;1.52;;
81336;SDS011;70799;48.000;10.584;2024-02-26T12:13:29;4.07;;;1.90;;
81336;SDS011;70799;48.000;10.584;2024-02-26T12:16:07;3.75;;;1.70;;
81336;SDS011;70799;48.000;10.584;2024-02-26T12:18:44;3.05;;;1.83;;
81336;SDS011;70799;48.000;10.584;2024-02-26T12:21:20;4.32;;;1.77;;
81336;SDS011;70799;48.000;10.584;2024-02-26T12:23:56;4.05;;;2.08;;
81336;SDS011;70799;48.000;10.584;2024-02-26T12:26:46;4.38;;;2.03;;
81336;SDS011;70799;48.000;10.584;2024-02-26T12:29:22;3.90;;;2.20;;
81336;SDS011;70799;48.000;10.584;2024-02-26T12:31:58;3.75;;;2.20;;
81336;SDS011;70799;48.000;10.584;2024-02-26T12:34:38;4.10;;;2.17;;
81336;SDS011;70799;48.000;10.584;2024-02-26T12:37:14;5.30;;;2.17;;
81336;SDS011;70799;48.000;10.584;2024-02-26T12:39:51;5.60;;;2.50;;
81336;SDS011;70799;48.000;10.584;2024-02-26T12:42:27;4.78;;;2.45;;
81336;SDS011;70799;48.000;10.584;2024-02-26T12:45:08;5.18;;;2.50;;
81336;SDS011;70799;48.000;10.584;2024-02-26T12:47:46;6.20;;;2.55;;
81336;SDS011;70799;48.000;10.584;2024-02-26T12:50:22;5.40;;;2.63;;
81336;SDS011;70799;48.000;10.584;2024-02-26T12:52:59;4.70;;;2.47;;
81336;SDS011;70799;48.000;10.584;2024-02-26T12:55:35;4.38;;;2.13;;
81336;SDS011;70799;48.000;10.584;2024-02-26T12:58:12;3.80;;;2.40;;
81336;SDS011;70799;48.000;10.584;2024-02-26T13:00:48;5.30;;;2.47;;
81336;SDS011;70799;48.000;10.584;2024-02-26T13:03:24;5.65;;;3.05;;
81336;SDS011;70799;48.000;10.584;2024-02-26T13:06:00;3.97;;;2.00;;
81336;SDS011;70799;48.000;10.584;2024-02-26T13:08:37;4.78;;;2.55;;
81336;SDS011;70799;48.000;10.584;2024-02-26T13:11:13;4.38;;;2.38;;
81336;SDS011;70799;48.000;10.584;2024-02-26T13:13:50;5.43;;;2.67;;
81336;SDS011;70799;48.000;10.584;2024-02-26T13:16:26;4.97;;;2.70;;
81336;SDS011;70799;48.000;10.584;2024-02-26T13:19:09;5.47;;;2.72;;
81336;SDS011;70799;48.000;10.584;2024-02-26T13:21:45;5.07;;;3.03;;
81336;SDS011;70799;48.000;10.584;2024-02-26T13:24:21;6.18;;;2.50;;
81336;SDS011;70799;48.000;10.584;2024-02-26T13:26:57;4.60;;;2.85;;
81336;SDS011;70799;48.000;10.584;2024-02-26T13:29:35;5.13;;;2.70;;
81336;SDS011;70799;48.000;10.584;2024-02-26T13:32:11;5.43;;;2.90;;
81336;SDS011;70799;48.000;10.584;2024-02-26T13:34:47;5.15;;;2.97;;
81336;SDS011;70799;48.000;10.584;2024-02-26T13:37:23;6.75;;;3.33;;
81336;SDS011;70799;48.000;10.584;2024-02-26T13:39:59;6.47;;;3.25;;
81336;SDS011;70799;48.000;10.584;2024-02-26T13:42:37;8.48;;;3.15;;
81336;SDS011;70799;48.000;10.584;2024-02-26T13:45:16;6.70;;;3.20;;
81336;SDS011;70799;48.000;10.584;2024-02-26T13:47:52;5.45;;;3.60;;
81336;SDS011;70799;48.000;10.584;2024-02-26T13:50:28;7.15;;;3.72;;
81336;SDS011;70799;48.000;10.584;2024-02-26T13:53:04;8.40;;;3.58;;
81336;SDS011;70799;48.000;10.584;2024-02-26T13:55:40;6.28;;;3.25;;
81336;SDS011;70799;48.000;10.584;2024-02-26T13:58:17;5.00;;;3.35;;
81336;SDS011;70799;48.000;10.584;2024-02-26T14:00:58;5.13;;;3.20;;
81336;SDS011;70799;48.000;10.584;2024-02-26T14:03:35;6.88;;;2.90;;
81336;SDS011;70799;48.000;10.584;2024-02-26T14:06:11;5.80;;;3.00;;
81336;SDS011;70799;48.000;10.584;2024-02-26T14:08:47;6.90;;;3.33;;
81336;SDS011;70799;48.000;10.584;2024-02-26T14:11:23;7.25;;;3.13;;
81336;SDS011;70799;48.000;10.584;2024-02-26T14:14:02;5.53;;;3.17;;
81336;SDS011;70799;48.000;10.584;2024-02-26T14:16:37;6.65;;;3.55;;
81336;SDS011;70799;48.000;10.584;2024-02-26T14:19:13;7.15;;;2.83;;
81336;SDS011;70799;48.000;10.584;2024-02-26T14:21:50;4.97;;;2.88;;
81336;SDS011;70799;48.000;10.584;2024-02-26T14:24:26;4.90;;;2.88;;
81336;SDS011;70799;48.000;10.584;2024-02-26T14:27:02;4.57;;;2.78;;
81336;SDS011;70799;48.000;10.584;2024-02-26T14:29:38;6.10;;;2.97;;
81336;SDS011;70799;48.000;10.584;2024-02-26T14:32:15;6.63;;;3.08;;
81336;SDS011;70799;48.000;10.584;2024-02-26T14:34:51;6.68;;;3.35;;
81336;SDS011;70799;48.000;10.584;2024-02-26T14:37:27;7.35;;;3.03;;
81336;SDS011;70799;48.000;10.584;2024-02-26T14:40:03;4.90;;;2.25;;
81336;SDS011;70799;48.000;10.584;2024-02-26T14:42:40;6.22;;;2.95;;
81336;SDS011;70799;48.000;10.584;2024-02-26T14:45:16;5.65;;;2.55;;
81336;SDS011;70799;48.000;10.584;2024-02-26T14:47:52;4.80;;;2.42;;
81336;SDS011;70799;48.000;10.584;2024-02-26T14:50:28;3.55;;;1.73;;
81336;SDS011;70799;48.000;10.584;2024-02-26T14:53:04;2.88;;;1.60;;
81336;SDS011;70799;48.000;10.584;2024-02-26T14:55:40;2.17;;;1.30;;
81336;SDS011;70799;48.000;10.584;2024-02-26T14:58:16;3.15;;;1.33;;
81336;SDS011;70799;48.000;10.584;2024-02-26T15:00:52;2.42;;;1.23;;
81336;SDS011;70799;48.000;10.584;2024-02-26T15:03:28;3.00;;;1.27;;
81336;SDS011;70799;48.000;10.584;2024-02-26T15:06:04;3.53;;;1.95;;
81336;SDS011;70799;48.000;10.584;2024-02-26T15:08:40;2.47;;;0.95;;
81336;SDS011;70799;48.000;10.584;2024-02-26T15:11:16;2.88;;;1.02;;
81336;SDS011;70799;48.000;10.584;2024-02-26T15:13:52;1.27;;;0.50;;
81336;SDS011;70799;48.000;10.584;2024-02-26T15:16:28;0.85;;;0.30;;
81336;SDS011;70799;48.000;10.584;2024-02-26T15:21:46;0.63;;;0.30;;
81336;SDS011;70799;48.000;10.584;2024-02-26T15:24:22;0.50;;;0.20;;
81336;SDS011;70799;48.000;10.584;2024-02-26T15:26:59;0.77;;;0.20;;
81336;SDS011;70799;48.000;10.584;2024-02-26T15:29:37;0.52;;;0.17;;
81336;SDS011;70799;48.000;10.584;2024-02-26T15:32:14;1.13;;;0.20;;
81336;SDS011;70799;48.000;10.584;2024-02-26T15:34:50;0.40;;;0.30;;
81336;SDS011;70799;48.000;10.584;2024-02-26T15:37:26;0.52;;;0.20;;
81336;SDS011;70799;48.000;10.584;2024-02-26T15:40:03;1.23;;;0.30;;
81336;SDS011;70799;48.000;10.584;2024-02-26T15:42:39;0.63;;;0.20;;
81336;SDS011;70799;48.000;10.584;2024-02-26T15:47:51;1.00;;;0.28;;
81336;SDS011;70799;48.000;10.584;2024-02-26T15:50:27;0.65;;;0.20;;
81336;SDS011;70799;48.000;10.584;2024-02-26T15:53:03;0.90;;;0.55;;
81336;SDS011;70799;48.000;10.584;2024-02-26T15:55:41;1.33;;;0.40;;
81336;SDS011;70799;48.000;10.584;2024-02-26T15:58:17;1.85;;;0.47;;
81336;SDS011;70799;48.000;10.584;2024-02-26T16:00:53;1.63;;;0.60;;
81336;SDS011;70799;48.000;10.584;2024-02-26T16:03:40;1.70;;;0.70;;
81336;SDS011;70799;48.000;10.584;2024-02-26T16:06:22;1.08;;;0.50;;
81336;SDS011;70799;48.000;10.584;2024-02-26T16:09:01;0.73;;;0.35;;
81336;SDS011;70799;48.000;10.584;2024-02-26T16:11:39;1.30;;;0.47;;
81336;SDS011;70799;48.000;10.584;2024-02-26T16:14:23;0.50;;;0.20;;
81336;SDS011;70799;48.000;10.584;2024-02-26T16:17:43;0.63;;;0.28;;
81336;SDS011;70799;48.000;10.584;2024-02-26T16:20:19;0.77;;;0.43;;
81336;SDS011;70799;48.000;10.584;2024-02-26T16:22:56;0.73;;;0.30;;
81336;SDS011;70799;48.000;10.584;2024-02-26T16:25:36;0.47;;;0.28;;
81336;SDS011;70799;48.000;10.584;2024-02-26T16:28:12;0.95;;;0.30;;
81336;SDS011;70799;48.000;10.584;2024-02-26T16:30:49;0.68;;;0.30;;
81336;SDS011;70799;48.000;10.584;2024-02-26T16:33:26;1.35;;;0.30;;
81336;SDS011;70799;48.000;10.584;2024-02-26T16:36:02;0.45;;;0.30;;